createdAt,value
2022-08-09T00:01:57.577Z,96179.22
2022-08-09T00:04:34.773Z,96186.75
2022-08-09T00:07:10.597Z,96176.78
2022-08-09T00:09:41.089Z,96179.47
2022-08-09T00:12:22.854Z,96185.94
2022-08-09T00:14:54.559Z,96188.38
2022-08-09T00:18:09.289Z,96183.22
2022-08-09T00:20:16.741Z,96185.66
2022-08-09T00:22:47.381Z,96195.91
2022-08-09T00:25:23.589Z,96183.75
2022-08-09T00:28:04.035Z,96186.16
2022-08-09T00:30:35.558Z,96185.91
2022-08-09T00:33:05.469Z,96181.28
2022-08-09T00:35:43.237Z,96185.59
2022-08-09T00:40:54.722Z,96189.34
2022-08-09T00:44:13.140Z,96189.63
2022-08-09T00:46:55.579Z,96186.13
2022-08-09T00:49:07.530Z,96193.91
2022-08-09T00:51:42.694Z,96189.03
2022-08-09T00:54:31.260Z,96198.72
2022-08-09T00:57:08.811Z,96189.28
2022-08-09T00:59:46.594Z,96193.34
2022-08-09T01:02:26.805Z,96194.69
2022-08-09T01:05:14.009Z,96199.78
2022-08-09T01:07:59.707Z,96199.75
2022-08-09T01:10:39.269Z,96205.13
2022-08-09T01:13:22.123Z,96199.16
2022-08-09T01:15:55.438Z,96197.81
2022-08-09T01:18:32.202Z,96204.53
2022-08-09T01:21:24.783Z,96200.47
2022-08-09T01:24:05.035Z,96203.69
2022-08-09T01:26:59.375Z,96200.44
2022-08-09T01:29:40.938Z,96201.75
2022-08-09T01:32:34.069Z,96208.47
2022-08-09T01:35:28.213Z,96202.28
2022-08-09T01:38:10.473Z,96199.28
2022-08-09T01:41:05.024Z,96207.13
2022-08-09T01:43:50.657Z,96204.69
2022-08-09T01:46:27.141Z,96206.81
2022-08-09T01:49:09.468Z,96207.06
2022-08-09T01:51:53.527Z,96208.16
2022-08-09T01:54:30.251Z,96208.41
2022-08-09T01:57:10.059Z,96206.78
2022-08-09T01:59:51.580Z,96203.78
2022-08-09T02:02:31.035Z,96198.94
2022-08-09T02:05:15.267Z,96205.16
2022-08-09T02:08:40.464Z,96205.41
2022-08-09T02:10:51.358Z,96206.72
2022-08-09T02:13:37.613Z,96209.94
2022-08-09T02:16:13.681Z,96215.34
2022-08-09T02:18:47.658Z,96211.00
2022-08-09T02:21:22.677Z,96217.47
2022-08-09T02:23:57.520Z,96221.25
2022-08-09T02:26:29.573Z,96211.78
2022-08-09T02:29:04.489Z,96218.25
2022-08-09T02:31:42.726Z,96213.38
2022-08-09T02:34:25.756Z,96212.81
2022-08-09T02:37:16.382Z,96214.13
2022-08-09T02:40:01.325Z,96213.56
2022-08-09T02:42:36.741Z,96214.91
2022-08-09T02:45:12.127Z,96214.09
2022-08-09T02:47:57.584Z,96215.97
2022-08-09T02:50:38.205Z,96220.81
2022-08-09T02:53:17.271Z,96217.56
2022-08-09T02:56:01.040Z,96213.00
2022-08-09T02:58:37.479Z,96220.28
2022-08-09T03:01:10.970Z,96227.53
2022-08-09T03:04:17.563Z,96224.03
2022-08-09T03:06:36.195Z,96227.78
2022-08-09T03:09:07.878Z,96229.69
2022-08-09T03:12:09.906Z,96225.91
2022-08-09T03:14:31.765Z,96219.72
2022-08-09T03:17:05.516Z,96208.44
2022-08-09T03:19:58.169Z,96202.47
2022-08-09T03:22:31.528Z,96200.84
2022-08-09T03:25:06.211Z,96205.44
2022-08-09T03:27:55.365Z,96202.47
2022-08-09T03:30:33.220Z,96207.56
2022-08-09T03:33:18.531Z,96216.16
2022-08-09T03:36:15.865Z,96214.78
2022-08-09T03:38:44.915Z,96220.94
2022-08-09T03:41:18.446Z,96217.13
2022-08-09T03:44:03.624Z,96221.69
2022-08-09T03:46:51.894Z,96223.84
2022-08-09T03:49:23.966Z,96224.38
2022-08-09T03:52:03.485Z,96223.25
2022-08-09T03:54:38.845Z,96226.44
2022-08-09T03:57:20.304Z,96227.78
2022-08-09T03:59:55.432Z,96226.97
2022-08-09T04:02:28.989Z,96230.47
2022-08-09T04:05:06.574Z,96230.72
2022-08-09T04:07:47.163Z,96233.41
2022-08-09T04:10:28.526Z,96233.91
2022-08-09T04:13:04.126Z,96232.28
2022-08-09T04:15:52.121Z,96239.00
2022-08-09T04:18:25.050Z,96248.38
2022-08-09T04:20:55.056Z,96238.19
2022-08-09T04:23:26.068Z,96243.00
2022-08-09T04:25:56.618Z,96247.56
2022-08-09T04:28:34.099Z,96244.31
2022-08-09T04:31:10.123Z,96247.25
2022-08-09T04:33:47.704Z,96251.56
2022-08-09T04:36:26.184Z,96256.97
2022-08-09T04:38:59.752Z,96252.97
2022-08-09T04:41:32.131Z,96254.59
2022-08-09T04:44:09.637Z,96255.16
2022-08-09T04:46:58.454Z,96266.47
2022-08-09T04:49:53.631Z,96262.47
2022-08-09T04:52:27.752Z,96260.91
2022-08-09T04:55:02.406Z,96252.06
2022-08-09T04:57:54.387Z,96253.72
2022-08-09T05:00:24.075Z,96260.28
2022-08-09T05:02:54.188Z,96265.50
2022-08-09T05:05:32.263Z,96270.16
2022-08-09T05:08:15.130Z,96258.41
2022-08-09T05:10:46.355Z,96265.53
2022-08-09T05:13:15.870Z,96268.00
2022-08-09T05:15:48.039Z,96271.09
2022-08-09T05:18:37.643Z,96270.09
2022-08-09T05:21:09.768Z,96275.31
2022-08-09T05:23:54.698Z,96276.16
2022-08-09T05:26:36.126Z,96277.88
2022-08-09T05:29:17.812Z,96284.69
2022-08-09T05:31:57.256Z,96285.53
2022-08-09T05:34:31.115Z,96277.47
2022-08-09T05:37:06.694Z,96275.34
2022-08-09T05:39:42.884Z,96277.03
2022-08-09T05:42:20.634Z,96277.06
2022-08-09T05:44:55.493Z,96283.03
2022-08-09T05:47:30.205Z,96277.66
2022-08-09T05:50:25.968Z,96277.94
2022-08-09T05:52:54.858Z,96278.50
2022-08-09T05:55:25.300Z,96278.78
2022-08-09T05:57:58.509Z,96285.81
2022-08-09T06:00:30.296Z,96278.25
2022-08-09T06:03:02.776Z,96281.78
2022-08-09T06:05:58.217Z,96276.34
2022-08-09T06:08:25.773Z,96279.31
2022-08-09T06:10:58.328Z,96284.69
2022-08-09T06:13:33.641Z,96279.00
2022-08-09T06:16:05.503Z,96286.53
2022-08-09T06:18:36.489Z,96296.25
2022-08-09T06:21:08.095Z,96292.22
2022-08-09T06:23:55.259Z,96282.66
2022-08-09T06:26:28.898Z,96280.19
2022-08-09T06:29:04.984Z,96284.97
2022-08-09T06:31:39.748Z,96287.91
2022-08-09T06:34:26.067Z,96288.88
2022-08-09T06:37:00.150Z,96291.78
2022-08-09T06:39:48.524Z,96282.44
2022-08-09T06:42:24.658Z,96286.97
2022-08-09T06:45:00.495Z,96288.22
2022-08-09T06:47:57.975Z,96289.69
2022-08-09T06:50:31.922Z,96294.19
2022-08-09T06:53:01.815Z,96294.84
2022-08-09T06:55:33.202Z,96296.91
2022-08-09T06:58:04.678Z,96288.56
2022-08-09T07:00:54.166Z,96299.56
2022-08-09T07:03:29.013Z,96302.63
2022-08-09T07:06:04.209Z,96302.47
2022-08-09T07:08:37.415Z,96301.16
2022-08-09T07:11:12.738Z,96294.38
2022-08-09T07:14:04.830Z,96299.63
2022-08-09T07:16:44.063Z,96300.19
2022-08-09T07:19:23.374Z,96292.63
2022-08-09T07:21:57.783Z,96305.97
2022-08-09T07:24:40.551Z,96297.88
2022-08-09T07:27:33.651Z,96297.50
2022-08-09T07:30:05.749Z,96308.31
2022-08-09T07:32:38.132Z,96298.25
2022-08-09T07:35:14.806Z,96304.53
2022-08-09T07:37:47.921Z,96300.69
2022-08-09T07:40:27.033Z,96303.59
2022-08-09T07:43:04.136Z,96300.22
2022-08-09T07:45:44.321Z,96303.44
2022-08-09T07:48:22.440Z,96301.78
2022-08-09T07:51:03.011Z,96310.78
2022-08-09T07:54:06.921Z,96308.97
2022-08-09T07:56:30.816Z,96309.94
2022-08-09T07:59:01.059Z,96320.16
2022-08-09T08:01:32.993Z,96319.75
2022-08-09T08:04:10.680Z,96315.88
2022-08-09T08:06:55.935Z,96307.53
2022-08-09T08:09:38.697Z,96322.13
2022-08-09T08:12:27.682Z,96315.09
2022-08-09T08:14:59.786Z,96325.28
2022-08-09T08:17:52.376Z,96319.72
2022-08-09T08:20:30.362Z,96319.88
2022-08-09T08:23:06.918Z,96308.78
2022-08-09T08:25:50.135Z,96308.31
2022-08-09T08:28:25.911Z,96312.84
2022-08-09T08:31:10.540Z,96304.44
2022-08-09T08:33:53.514Z,96306.41
2022-08-09T08:36:28.963Z,96316.34
2022-08-09T08:39:00.311Z,96312.00
2022-08-09T08:41:50.653Z,96313.75
2022-08-09T08:44:28.723Z,96316.28
2022-08-09T08:47:04.775Z,96314.00
2022-08-09T08:49:47.901Z,96317.81
2022-08-09T08:55:23.035Z,96310.75
2022-08-09T08:57:56.851Z,96308.91
2022-08-09T09:00:30.120Z,96323.84
2022-08-09T09:03:08.675Z,96306.13
2022-08-09T09:05:59.794Z,96304.28
2022-08-09T09:08:40.751Z,96312.47
2022-08-09T09:11:13.692Z,96312.94
2022-08-09T09:13:57.959Z,96305.97
2022-08-09T09:16:33.672Z,96307.47
2022-08-09T09:19:22.499Z,96310.31
2022-08-09T09:22:11.388Z,96305.50
2022-08-09T09:24:46.267Z,96299.06
2022-08-09T09:28:04.074Z,96297.94
2022-08-09T09:30:34.553Z,96300.41
2022-08-09T09:33:16.948Z,96294.81
2022-08-09T09:36:02.045Z,96306.03
2022-08-09T09:38:47.326Z,96299.06
2022-08-09T09:41:49.358Z,96297.16
2022-08-09T09:44:31.691Z,96298.53
2022-08-09T09:47:11.033Z,96301.72
2022-08-09T09:50:06.895Z,96305.88
2022-08-09T09:52:36.622Z,96308.50
2022-08-09T09:55:28.469Z,96313.66
2022-08-09T09:58:16.878Z,96309.72
2022-08-09T10:00:53.788Z,96312.13
2022-08-09T10:03:44.807Z,96303.44
2022-08-09T10:06:32.042Z,96298.56
2022-08-09T10:09:12.042Z,96296.22
2022-08-09T10:12:12.060Z,96295.56
2022-08-09T10:14:48.050Z,96293.28
2022-08-09T10:17:39.004Z,96297.63
2022-08-09T10:20:33.062Z,96301.34
2022-08-09T10:23:22.629Z,96300.19
2022-08-09T10:26:08.126Z,96297.28
2022-08-09T10:28:45.539Z,96300.06
2022-08-09T10:34:32.875Z,96279.69
2022-08-09T10:37:03.663Z,96279.56
2022-08-09T10:39:49.292Z,96289.84
2022-08-09T10:42:19.440Z,96285.47
2022-08-09T10:44:55.142Z,96288.13
2022-08-09T10:48:16.871Z,96278.66
2022-08-09T10:51:09.266Z,96284.16
2022-08-09T10:53:54.937Z,96282.09
2022-08-09T10:56:28.398Z,96286.88
2022-08-09T10:59:03.389Z,96285.31
2022-08-09T11:03:18.762Z,96279.63
2022-08-09T11:04:35.374Z,96279.84
2022-08-09T11:07:58.267Z,96270.25
2022-08-09T11:11:00.579Z,96274.53
2022-08-09T11:13:50.826Z,96283.03
2022-08-09T11:16:39.336Z,96276.22
2022-08-09T11:19:11.489Z,96275.16
2022-08-09T11:22:10.698Z,96283.25
2022-08-09T11:25:10.361Z,96281.16
2022-08-09T11:28:03.580Z,96281.00
2022-08-09T11:30:38.100Z,96277.28
2022-08-09T11:33:27.845Z,96279.41
2022-08-09T11:36:00.965Z,96275.31
2022-08-09T11:38:35.358Z,96281.47
2022-08-09T11:41:38.596Z,96290.16
2022-08-09T11:44:13.508Z,96280.81
2022-08-09T11:46:57.003Z,96269.81
2022-08-09T11:50:53.893Z,96272.06
2022-08-09T11:54:01.123Z,96271.72
2022-08-09T11:56:42.652Z,96273.91
2022-08-09T11:59:33.612Z,96264.50
2022-08-09T12:02:37.350Z,96255.44
2022-08-09T12:04:58.163Z,96265.16
2022-08-09T12:07:41.353Z,96264.53
2022-08-09T12:10:14.407Z,96263.81
2022-08-09T12:14:11.078Z,96259.59
2022-08-09T12:16:06.221Z,96264.06
2022-08-09T12:18:56.300Z,96249.84
2022-08-09T12:21:38.569Z,96256.91
2022-08-09T12:24:12.580Z,96253.78
2022-08-09T12:28:58.297Z,96254.25
2022-08-09T12:30:04.319Z,96247.50
2022-08-09T12:32:48.704Z,96249.13
2022-08-09T12:35:21.573Z,96256.34
2022-08-09T12:37:53.890Z,96245.38
2022-08-09T12:40:27.251Z,96255.75
2022-08-09T12:42:58.138Z,96247.81
2022-08-09T12:45:33.642Z,96248.25
2022-08-09T12:48:07.988Z,96244.66
2022-08-09T12:50:52.151Z,96227.97
2022-08-09T12:53:35.280Z,96237.16
2022-08-09T12:56:43.788Z,96226.00
2022-08-09T12:59:57.974Z,96232.00
2022-08-09T13:02:24.476Z,96235.56
2022-08-09T13:05:02.948Z,96227.97
2022-08-09T13:07:50.188Z,96233.19
2022-08-09T13:10:21.028Z,96226.06
2022-08-09T13:13:10.959Z,96232.50
2022-08-09T13:15:57.157Z,96221.78
2022-08-09T13:18:30.466Z,96228.53
2022-08-09T13:22:33.073Z,96223.38
2022-08-09T13:24:17.552Z,96219.81
2022-08-09T13:26:46.106Z,96231.78
2022-08-09T13:29:28.631Z,96222.22
2022-08-09T13:32:25.499Z,96223.44
2022-08-09T13:34:58.732Z,96215.84
2022-08-09T13:37:51.697Z,96211.47
2022-08-09T13:41:55.140Z,96216.22
2022-08-09T13:43:11.578Z,96211.81
2022-08-09T13:46:42.598Z,96209.81
2022-08-09T13:48:35.184Z,96211.41
2022-08-09T13:51:08.954Z,96213.81
2022-08-09T13:53:43.157Z,96211.00
2022-08-09T13:56:14.345Z,96213.72
2022-08-09T13:58:47.984Z,96212.53
2022-08-09T14:01:56.309Z,96202.16
2022-08-09T14:04:11.593Z,96206.53
2022-08-09T14:06:43.821Z,96218.91
2022-08-09T14:09:16.419Z,96215.31
2022-08-09T14:11:47.783Z,96216.03
2022-08-09T14:14:26.295Z,96214.47
2022-08-09T14:16:57.319Z,96211.22
2022-08-09T14:19:30.320Z,96200.34
2022-08-09T14:22:05.925Z,96211.47
2022-08-09T14:24:35.578Z,96210.69
2022-08-09T14:27:19.850Z,96202.28
2022-08-09T14:30:34.621Z,96209.50
2022-08-09T14:32:40.251Z,96209.50
2022-08-09T14:35:12.929Z,96208.31
2022-08-09T14:38:02.172Z,96199.09
2022-08-09T14:40:38.965Z,96205.13
2022-08-09T14:43:22.950Z,96205.94
2022-08-09T14:46:54.155Z,96201.53
2022-08-09T14:48:42.190Z,96202.75
2022-08-09T14:51:15.357Z,96201.91
2022-08-09T14:53:52.254Z,96205.53
2022-08-09T14:56:22.263Z,96198.03
2022-08-09T14:58:56.578Z,96196.84
2022-08-09T15:01:27.638Z,96198.41
2022-08-09T15:03:57.358Z,96197.53
2022-08-09T15:06:28.743Z,96190.72
2022-08-09T15:09:01.059Z,96196.22
2022-08-09T15:11:30.675Z,96199.41
2022-08-09T15:14:04.862Z,96193.09
2022-08-09T15:16:43.122Z,96193.66
2022-08-09T15:19:17.940Z,96191.28
2022-08-09T15:21:55.998Z,96205.28
2022-08-09T15:24:32.366Z,96203.34
2022-08-09T15:27:01.985Z,96195.88
2022-08-09T15:30:58.561Z,96191.91
2022-08-09T15:32:28.862Z,96183.97
2022-08-09T15:35:01.120Z,96189.94
2022-08-09T15:37:56.299Z,96182.75
2022-08-09T15:40:31.767Z,96173.53
2022-08-09T15:43:03.239Z,96181.06
2022-08-09T15:45:51.661Z,96175.44
2022-08-09T15:48:28.350Z,96189.16
2022-08-09T15:50:59.422Z,96185.34
2022-08-09T15:54:04.527Z,96189.50
2022-08-09T15:56:21.348Z,96190.41
2022-08-09T15:59:00.021Z,96183.91
2022-08-09T16:01:35.455Z,96190.53
2022-08-09T16:04:06.097Z,96191.09
2022-08-09T16:06:44.517Z,96189.94
2022-08-09T16:09:32.577Z,96187.34
2022-08-09T16:12:12.072Z,96189.34
2022-08-09T16:14:45.959Z,96187.09
2022-08-09T16:17:17.216Z,96182.50
2022-08-09T16:19:49.250Z,96181.44
2022-08-09T16:22:48.995Z,96177.66
2022-08-09T16:25:36.763Z,96179.50
2022-08-09T16:28:12.049Z,96172.03
2022-08-09T16:30:44.396Z,96176.13
2022-08-09T16:33:16.001Z,96174.13
2022-08-09T16:35:56.634Z,96177.78
2022-08-09T16:38:28.048Z,96179.81
2022-08-09T16:40:59.339Z,96173.25
2022-08-09T16:43:40.639Z,96181.16
2022-08-09T16:46:12.352Z,96176.78
2022-08-09T16:48:59.272Z,96175.25
2022-08-09T16:51:31.603Z,96169.25
2022-08-09T16:54:27.533Z,96181.25
2022-08-09T16:56:54.457Z,96178.47
2022-08-09T16:59:27.399Z,96174.94
2022-08-09T17:02:04.385Z,96175.34
2022-08-09T17:04:35.101Z,96180.25
2022-08-09T17:08:45.393Z,96181.75
2022-08-09T17:10:01.791Z,96184.91
2022-08-09T17:12:35.561Z,96186.91
2022-08-09T17:15:31.334Z,96179.81
2022-08-09T17:18:00.723Z,96184.56
2022-08-09T17:20:37.701Z,96184.72
2022-08-09T17:23:14.798Z,96203.09
2022-08-09T17:25:52.999Z,96203.13
2022-08-09T17:28:22.965Z,96199.59
2022-08-09T17:30:54.347Z,96209.13
2022-08-09T17:33:24.003Z,96204.09
2022-08-09T17:35:53.485Z,96202.47
2022-08-09T17:38:34.070Z,96205.69
2022-08-09T17:41:07.934Z,96195.50
2022-08-09T17:43:37.984Z,96197.53
2022-08-09T17:46:09.859Z,96205.78
2022-08-09T17:48:46.588Z,96209.41
2022-08-09T17:51:22.596Z,96204.00
2022-08-09T17:53:55.775Z,96201.13
2022-08-09T17:56:28.778Z,96220.81
2022-08-09T17:59:01.113Z,96218.63
2022-08-09T18:02:03.295Z,96213.22
2022-08-09T18:04:23.545Z,96218.81
2022-08-09T18:06:54.881Z,96224.84
2022-08-09T18:09:40.247Z,96217.34
2022-08-09T18:12:17.410Z,96217.28
2022-08-09T18:14:54.690Z,96230.25
2022-08-09T18:18:03.730Z,96228.38
2022-08-09T18:20:56.019Z,96230.41
2022-08-09T18:23:07.993Z,96228.84
2022-08-09T18:25:57.991Z,96239.88
2022-08-09T18:30:42.021Z,96231.25
2022-08-09T18:31:32.245Z,96233.06
2022-08-09T18:34:10.314Z,96240.72
2022-08-09T18:36:39.539Z,96229.94
2022-08-09T18:39:15.951Z,96232.44
2022-08-09T18:41:53.130Z,96233.94
2022-08-09T18:44:25.752Z,96237.84
2022-08-09T18:47:08.201Z,96238.66
2022-08-09T18:49:46.844Z,96242.22
2022-08-09T18:52:24.951Z,96248.03
2022-08-09T18:54:59.614Z,96253.84
2022-08-09T18:57:42.880Z,96253.53
2022-08-09T19:00:16.820Z,96258.53
2022-08-09T19:02:51.163Z,96265.47
2022-08-09T19:05:49.309Z,96264.16
2022-08-09T19:08:19.698Z,96279.41
2022-08-09T19:10:50.690Z,96280.47
2022-08-09T19:13:23.432Z,96283.66
2022-08-09T19:16:09.332Z,96283.56
2022-08-09T19:18:43.924Z,96283.19
2022-08-09T19:21:16.424Z,96282.09
2022-08-09T19:24:36.231Z,96281.00
2022-08-09T19:26:38.385Z,96286.94
2022-08-09T19:29:18.005Z,96285.50
2022-08-09T19:31:51.647Z,96289.50
2022-08-09T19:34:24.675Z,96284.47
2022-08-09T19:36:58.457Z,96295.22
2022-08-09T19:40:02.650Z,96293.63
2022-08-09T19:42:28.414Z,96291.78
2022-08-09T19:44:57.692Z,96290.97
2022-08-09T19:47:27.250Z,96290.94
2022-08-09T19:50:07.061Z,96296.09
2022-08-09T19:52:51.941Z,96296.34
2022-08-09T19:55:30.776Z,96294.72
2022-08-09T19:58:15.959Z,96296.56
2022-08-09T20:00:47.674Z,96298.66
2022-08-09T20:04:26.514Z,96297.16
2022-08-09T20:06:22.309Z,96308.50
2022-08-09T20:08:56.570Z,96301.06
2022-08-09T20:11:26.941Z,96300.91
2022-08-09T20:13:56.759Z,96303.00
2022-08-09T20:16:38.239Z,96307.47
2022-08-09T20:19:49.652Z,96308.38
2022-08-09T20:22:04.769Z,96312.06
2022-08-09T20:24:40.960Z,96310.56
2022-08-09T20:27:11.554Z,96315.31
2022-08-09T20:29:44.528Z,96313.50
2022-08-09T20:32:29.399Z,96308.97
2022-08-09T20:35:01.461Z,96306.91
2022-08-09T20:37:37.310Z,96314.34
2022-08-09T20:40:27.918Z,96314.72
2022-08-09T20:42:59.514Z,96317.78
2022-08-09T20:45:57.767Z,96319.47
2022-08-09T20:48:21.374Z,96316.84
2022-08-09T20:50:55.632Z,96319.38
2022-08-09T20:53:36.632Z,96317.28
2022-08-09T20:56:20.114Z,96318.41
2022-08-09T20:58:58.645Z,96327.16
2022-08-09T21:01:34.444Z,96326.09
2022-08-09T21:05:52.882Z,96327.78
2022-08-09T21:07:14.421Z,96319.13
2022-08-09T21:09:56.584Z,96318.66
2022-08-09T21:12:32.392Z,96319.50
2022-08-09T21:15:03.725Z,96318.44
2022-08-09T21:18:11.970Z,96319.25
2022-08-09T21:20:26.332Z,96312.78
2022-08-09T21:22:56.178Z,96322.28
2022-08-09T21:25:56.154Z,96313.09
2022-08-09T21:28:36.206Z,96315.84
2022-08-09T21:31:13.576Z,96315.84
2022-08-09T21:33:51.231Z,96323.19
2022-08-09T21:36:30.508Z,96326.72
2022-08-09T21:39:00.723Z,96320.81
2022-08-09T21:42:04.927Z,96331.94
2022-08-09T21:44:32.879Z,96326.81
2022-08-09T21:47:09.013Z,96340.91
2022-08-09T21:49:42.905Z,96338.47
2022-08-09T21:52:17.612Z,96333.59
2022-08-09T21:54:50.868Z,96332.78
2022-08-09T21:57:39.190Z,96331.16
2022-08-09T22:00:26.742Z,96334.41
2022-08-09T22:03:06.671Z,96333.84
2022-08-09T22:05:42.055Z,96327.63
2022-08-09T22:08:15.198Z,96321.38
2022-08-09T22:11:49.532Z,96325.47
2022-08-09T22:13:37.090Z,96331.16
2022-08-09T22:16:10.008Z,96327.91
2022-08-09T22:18:53.101Z,96326.00
2022-08-09T22:21:27.316Z,96328.72
2022-08-09T22:24:16.596Z,96327.41
2022-08-09T22:26:51.007Z,96325.00
2022-08-09T22:29:28.443Z,96323.88
2022-08-09T22:32:06.927Z,96326.88
2022-08-09T22:34:59.354Z,96316.31
2022-08-09T22:37:40.261Z,96312.03
2022-08-09T22:40:18.300Z,96315.81
2022-08-09T22:42:50.169Z,96314.72
2022-08-09T22:48:15.792Z,96315.81
2022-08-09T22:48:34.971Z,96303.38
2022-08-09T22:51:10.908Z,96301.47
2022-08-09T22:54:02.007Z,96302.84
2022-08-09T22:56:33.981Z,96303.66
2022-08-09T22:59:57.273Z,96292.03
2022-08-09T23:01:56.230Z,96295.28
2022-08-09T23:04:27.973Z,96290.41
2022-08-09T23:08:21.227Z,96297.44
2022-08-09T23:10:10.361Z,96297.44
2022-08-09T23:12:40.045Z,96290.97
2022-08-09T23:15:11.089Z,96288.25
2022-08-09T23:17:40.648Z,96286.63
2022-08-09T23:20:12.710Z,96290.13
2022-08-09T23:22:42.302Z,96289.06
2022-08-09T23:25:12.204Z,96285.56
2022-08-09T23:28:14.483Z,96282.56
2022-08-09T23:30:31.538Z,96281.75
2022-08-09T23:33:01.182Z,96293.63
2022-08-09T23:35:32.100Z,96283.56
2022-08-09T23:38:22.862Z,96290.34
2022-08-09T23:40:52.429Z,96294.09
2022-08-09T23:43:22.492Z,96294.63
2022-08-09T23:45:52.037Z,96288.94
2022-08-09T23:48:21.636Z,96291.63
2022-08-09T23:50:52.521Z,96293.53
2022-08-09T23:53:22.074Z,96283.53
2022-08-09T23:55:55.368Z,96285.66
2022-08-09T23:58:29.711Z,96281.59
